Terminal Aerodrome Forecast
Issued by NWS

Home | Current Version | Previous Version | Text Only | Print | Product List | Glossary On
Versions: 1 2 3 4 5 6 7 8 9 10 11 12
000
FTPA31 PHFO 262321
TAFHKO
TAF
PHKO 262321Z 2700/2724 25011KT P6SM FEW045 SCT070
     FM270600 14011KT P6SM SCT035 BKN060
     FM271000 10005KT P6SM FEW035 SCT060
     FM272100 25011KT P6SM SCT045 BKN070=

USA.gov is the U.S. government's official web portal to all federal, state and local government web resources and services.